Terminal Aerodrome Forecast
Issued by NWS

Home | Current Version | Previous Version | Text Only | Print | Product List | Glossary On
Versions: 1 2 3 4 5 6 7 8 9 10 11 12 13
000
FTUS45 KABQ 172300
TAFFMN
TAF
KFMN 172340Z 1800/1824 28009KT P6SM -RA OVC025
      TEMPO 1800/1804 4SM -RASN BR OVC012
     FM180400 27004KT 5SM BR OVC035
      TEMPO 1810/1814 2SM BR OVC018
     FM182100 28008KT P6SM BKN100=

USA.gov is the U.S. government's official web portal to all federal, state and local government web resources and services.